createdAt,value
2022-10-19T00:01:04.975Z,77.16
2022-10-19T00:04:10.524Z,77.21
2022-10-19T00:07:16.074Z,77.38
2022-10-19T00:10:21.538Z,77.56
2022-10-19T00:13:27.075Z,77.54
2022-10-19T00:16:35.421Z,77.60
2022-10-19T00:19:40.916Z,77.60
2022-10-19T00:22:46.483Z,77.66
2022-10-19T00:25:58.671Z,77.58
2022-10-19T00:29:04.908Z,77.71
2022-10-19T00:32:10.397Z,77.74
2022-10-19T00:35:16.055Z,77.84
2022-10-19T00:38:22.573Z,77.86
2022-10-19T00:41:30.839Z,78.02
2022-10-19T00:45:00.652Z,78.08
2022-10-19T00:48:06.653Z,78.08
2022-10-19T00:51:12.371Z,78.21
2022-10-19T00:54:18.861Z,78.25
2022-10-19T00:57:28.742Z,78.20
2022-10-19T01:00:34.788Z,78.23
2022-10-19T01:03:39.539Z,78.41
2022-10-19T01:06:45.205Z,78.38
2022-10-19T01:09:50.957Z,78.59
2022-10-19T01:13:16.101Z,78.50
2022-10-19T01:16:32.133Z,78.53
2022-10-19T01:20:10.667Z,78.49
2022-10-19T01:23:45.794Z,78.77
2022-10-19T01:27:11.921Z,78.87
2022-10-19T01:30:26.994Z,78.78
2022-10-19T01:33:47.073Z,78.77
2022-10-19T01:37:01.822Z,78.81
2022-10-19T01:40:14.064Z,78.98
2022-10-19T01:43:39.261Z,79.08
2022-10-19T01:46:50.681Z,78.99
2022-10-19T01:50:00.324Z,79.19
2022-10-19T01:53:09.105Z,79.23
2022-10-19T01:56:17.969Z,79.15
2022-10-19T01:59:24.644Z,79.25
2022-10-19T02:02:31.030Z,79.28
2022-10-19T02:05:39.383Z,79.47
2022-10-19T02:08:48.721Z,79.39
2022-10-19T02:11:57.937Z,79.50
2022-10-19T02:15:11.261Z,79.52
2022-10-19T02:18:20.901Z,79.56
2022-10-19T02:21:27.236Z,79.53
2022-10-19T02:24:32.972Z,79.58
2022-10-19T02:27:42.163Z,79.62
2022-10-19T02:30:47.945Z,79.57
2022-10-19T02:33:53.946Z,79.60
2022-10-19T02:37:00.034Z,79.60
2022-10-19T02:40:04.099Z,79.69
2022-10-19T02:43:15.211Z,79.92
2022-10-19T02:46:25.241Z,79.96
2022-10-19T02:49:34.284Z,79.90
2022-10-19T02:52:41.130Z,79.88
2022-10-19T02:55:48.572Z,79.97
2022-10-19T02:58:54.073Z,79.99
2022-10-19T03:01:59.519Z,79.98
2022-10-19T03:05:05.448Z,79.96
2022-10-19T03:08:10.925Z,79.98
2022-10-19T03:11:16.365Z,80.00
2022-10-19T03:14:22.068Z,80.06
2022-10-19T03:17:27.560Z,80.15
2022-10-19T03:20:33.136Z,80.29
2022-10-19T03:23:39.593Z,80.08
2022-10-19T03:26:45.143Z,80.17
2022-10-19T03:29:50.576Z,80.24
2022-10-19T03:32:56.139Z,80.22
2022-10-19T03:36:20.960Z,80.27
2022-10-19T03:39:26.556Z,80.39
2022-10-19T03:42:31.986Z,80.49
2022-10-19T03:45:37.589Z,80.35
2022-10-19T03:48:43.343Z,80.53
2022-10-19T03:51:48.934Z,80.50
2022-10-19T03:54:54.444Z,80.53
2022-10-19T03:58:00.329Z,80.55
2022-10-19T04:01:11.609Z,80.67
2022-10-19T04:04:20.057Z,80.73
2022-10-19T04:07:25.646Z,80.75
2022-10-19T04:10:33.510Z,80.75
2022-10-19T04:13:39.020Z,80.72
2022-10-19T04:16:44.681Z,80.64
2022-10-19T04:19:50.308Z,80.59
2022-10-19T04:22:56.540Z,80.77
2022-10-19T04:26:05.208Z,80.83
2022-10-19T04:29:11.201Z,80.83
2022-10-19T04:32:16.691Z,80.80
2022-10-19T04:35:22.151Z,81.00
2022-10-19T04:38:27.801Z,81.12
2022-10-19T04:41:34.313Z,80.96
2022-10-19T04:44:40.130Z,81.16
2022-10-19T04:47:45.597Z,81.21
2022-10-19T04:50:51.096Z,81.05
2022-10-19T04:53:59.688Z,81.15
2022-10-19T04:57:06.631Z,81.21
2022-10-19T05:00:14.834Z,81.40
2022-10-19T05:03:20.376Z,81.30
2022-10-19T05:06:26.591Z,81.40
2022-10-19T05:09:30.504Z,81.46
2022-10-19T05:12:37.284Z,81.44
2022-10-19T05:15:42.998Z,81.29
2022-10-19T05:18:51.717Z,81.34
2022-10-19T05:21:57.271Z,81.40
2022-10-19T05:25:02.726Z,81.59
2022-10-19T05:28:08.267Z,81.61
2022-10-19T05:31:15.763Z,81.59
2022-10-19T05:34:21.465Z,81.55
2022-10-19T05:37:26.995Z,81.66
2022-10-19T05:40:32.514Z,81.69
2022-10-19T05:43:38.166Z,81.64
2022-10-19T05:46:43.944Z,81.64
2022-10-19T05:49:50.186Z,81.74
2022-10-19T05:52:55.740Z,81.73
2022-10-19T05:56:01.394Z,81.66
2022-10-19T05:59:09.702Z,81.78
2022-10-19T06:02:16.604Z,81.86
2022-10-19T06:05:22.046Z,81.81
2022-10-19T06:08:27.683Z,81.98
2022-10-19T06:11:35.734Z,81.74
2022-10-19T06:14:41.407Z,81.88
2022-10-19T06:17:47.187Z,82.03
2022-10-19T06:20:52.761Z,82.06
2022-10-19T06:23:59.870Z,82.00
2022-10-19T06:27:06.815Z,81.88
2022-10-19T06:30:14.144Z,81.85
2022-10-19T06:33:19.759Z,81.93
2022-10-19T06:36:27.605Z,81.99
2022-10-19T06:39:33.109Z,81.86
2022-10-19T06:42:39.478Z,81.90
2022-10-19T06:45:45.027Z,82.01
2022-10-19T06:48:54.918Z,82.10
2022-10-19T06:52:00.428Z,82.03
2022-10-19T06:55:07.412Z,81.84
2022-10-19T06:58:12.822Z,81.69
2022-10-19T07:01:18.559Z,81.72
2022-10-19T07:04:24.177Z,81.60
2022-10-19T07:07:29.762Z,81.77
2022-10-19T07:10:35.388Z,81.71
2022-10-19T07:13:41.323Z,81.74
2022-10-19T07:16:47.082Z,81.57
2022-10-19T07:19:52.626Z,81.53
2022-10-19T07:22:58.075Z,81.38
2022-10-19T07:26:07.480Z,81.17
2022-10-19T07:29:13.369Z,81.27
2022-10-19T07:32:18.920Z,81.00
2022-10-19T07:35:24.468Z,81.14
2022-10-19T07:38:31.349Z,80.90
2022-10-19T07:41:37.106Z,81.15
2022-10-19T07:44:43.241Z,81.25
2022-10-19T07:47:47.178Z,81.24
2022-10-19T07:50:52.672Z,80.98
2022-10-19T07:53:58.510Z,80.85
2022-10-19T07:57:04.135Z,80.77
2022-10-19T08:00:12.391Z,80.57
2022-10-19T08:06:43.514Z,80.76
2022-10-19T08:09:53.351Z,80.70
2022-10-19T08:12:59.634Z,80.74
2022-10-19T08:16:05.516Z,80.34
2022-10-19T08:19:13.024Z,79.77
2022-10-19T08:22:18.492Z,79.71
2022-10-19T08:25:23.942Z,79.68
2022-10-19T08:28:29.632Z,79.73
2022-10-19T08:31:35.415Z,79.74
2022-10-19T08:34:41.486Z,79.48
2022-10-19T08:37:45.848Z,79.45
2022-10-19T08:40:51.728Z,79.30
2022-10-19T08:44:12.637Z,79.03
2022-10-19T08:47:29.085Z,78.89
2022-10-19T08:50:39.517Z,78.74
2022-10-19T08:53:52.750Z,78.50
2022-10-19T08:57:07.838Z,78.39
2022-10-19T09:00:19.018Z,78.13
2022-10-19T09:03:54.330Z,78.23
2022-10-19T09:07:22.338Z,77.94
2022-10-19T09:10:30.580Z,77.70
2022-10-19T09:13:53.473Z,77.62
2022-10-19T09:17:13.673Z,77.67
2022-10-19T09:20:22.873Z,77.68
2022-10-19T09:23:36.653Z,77.44
2022-10-19T09:26:52.409Z,77.21
2022-10-19T09:29:59.436Z,77.00
2022-10-19T09:33:06.421Z,76.90
2022-10-19T09:36:22.406Z,76.93
2022-10-19T09:39:33.615Z,76.74
2022-10-19T09:42:39.134Z,76.69
2022-10-19T09:45:48.985Z,76.57
2022-10-19T09:48:54.893Z,76.17
2022-10-19T09:52:00.389Z,75.97
2022-10-19T09:55:08.585Z,75.81
2022-10-19T09:58:21.366Z,75.66
2022-10-19T10:01:41.812Z,75.52
2022-10-19T10:04:58.348Z,75.61
2022-10-19T10:08:04.317Z,75.54
2022-10-19T10:11:12.616Z,75.46
2022-10-19T10:14:22.784Z,75.30
2022-10-19T10:17:32.755Z,75.22
2022-10-19T10:20:40.510Z,74.89
2022-10-19T10:23:59.317Z,74.89
2022-10-19T10:27:07.429Z,74.75
2022-10-19T10:30:21.299Z,74.72
2022-10-19T10:33:44.226Z,74.34
2022-10-19T10:36:54.920Z,74.06
2022-10-19T10:40:04.623Z,74.24
2022-10-19T10:43:16.599Z,74.12
2022-10-19T10:46:26.478Z,73.73
2022-10-19T10:49:35.131Z,73.46
2022-10-19T10:52:41.569Z,73.32
2022-10-19T10:55:57.999Z,73.31
2022-10-19T10:59:13.261Z,73.27
2022-10-19T11:02:30.969Z,73.16
2022-10-19T11:05:39.719Z,73.27
2022-10-19T11:08:51.233Z,73.12
2022-10-19T11:11:59.536Z,72.66
2022-10-19T11:15:14.049Z,72.53
2022-10-19T11:18:26.460Z,72.33
2022-10-19T11:21:37.739Z,72.34
2022-10-19T11:24:55.269Z,72.36
2022-10-19T11:28:15.155Z,72.21
2022-10-19T11:31:25.350Z,72.19
2022-10-19T11:34:50.697Z,72.26
2022-10-19T11:38:28.874Z,72.07
2022-10-19T11:41:46.083Z,71.95
2022-10-19T11:45:04.363Z,71.90
2022-10-19T11:48:33.371Z,71.90
2022-10-19T11:51:43.940Z,71.74
2022-10-19T11:55:04.379Z,71.72
2022-10-19T11:58:25.596Z,71.61
2022-10-19T12:01:40.587Z,71.51
2022-10-19T12:04:53.621Z,71.41
2022-10-19T12:08:15.454Z,71.19
2022-10-19T12:11:32.493Z,71.01
2022-10-19T12:14:42.145Z,70.90
2022-10-19T12:17:50.518Z,70.61
2022-10-19T12:21:00.762Z,70.57
2022-10-19T12:24:12.352Z,70.55
2022-10-19T12:27:24.485Z,70.38
2022-10-19T12:30:30.473Z,70.04
2022-10-19T12:33:48.937Z,69.97
2022-10-19T12:37:00.561Z,69.89
2022-10-19T12:40:14.813Z,69.59
2022-10-19T12:43:27.146Z,69.46
2022-10-19T12:46:39.859Z,69.36
2022-10-19T12:49:50.244Z,69.25
2022-10-19T12:52:55.789Z,69.18
2022-10-19T12:56:06.729Z,69.12
2022-10-19T12:59:24.784Z,68.84
2022-10-19T13:02:35.135Z,68.81
2022-10-19T13:05:41.654Z,68.48
2022-10-19T13:08:57.329Z,68.51
2022-10-19T13:12:43.203Z,68.34
2022-10-19T13:15:56.107Z,68.53
2022-10-19T13:19:22.442Z,68.41
2022-10-19T13:22:29.978Z,68.30
2022-10-19T13:25:36.255Z,68.21
2022-10-19T13:28:53.229Z,67.98
2022-10-19T13:32:44.648Z,68.00
2022-10-19T13:35:50.408Z,67.76
2022-10-19T13:39:16.537Z,67.57
2022-10-19T13:42:29.560Z,67.57
2022-10-19T13:45:35.745Z,67.48
2022-10-19T13:48:45.719Z,67.33
2022-10-19T13:52:06.380Z,67.35
2022-10-19T13:55:29.400Z,67.34
2022-10-19T13:59:09.649Z,67.47
2022-10-19T14:02:42.233Z,67.27
2022-10-19T14:06:14.317Z,67.17
2022-10-19T14:09:48.375Z,67.33
2022-10-19T14:12:54.505Z,67.28
2022-10-19T14:16:00.517Z,67.29
2022-10-19T14:19:15.394Z,67.11
2022-10-19T14:22:30.020Z,67.18
2022-10-19T14:25:35.680Z,67.07
2022-10-19T14:28:43.065Z,66.89
2022-10-19T14:31:48.827Z,67.03
2022-10-19T14:34:55.955Z,66.98
2022-10-19T14:38:02.019Z,67.04
2022-10-19T14:41:19.962Z,67.00
2022-10-19T14:44:37.547Z,66.92
2022-10-19T14:47:54.063Z,66.97
2022-10-19T14:51:00.658Z,67.13
2022-10-19T14:54:09.339Z,66.99
2022-10-19T14:57:20.122Z,66.90
2022-10-19T15:03:40.219Z,67.12
2022-10-19T15:06:49.514Z,67.04
2022-10-19T15:09:58.837Z,67.02
2022-10-19T15:13:07.567Z,67.04
2022-10-19T15:16:31.632Z,66.99
2022-10-19T15:19:42.597Z,67.22
2022-10-19T15:22:48.113Z,66.95
2022-10-19T15:26:02.009Z,66.97
2022-10-19T15:29:20.437Z,67.07
2022-10-19T15:32:31.895Z,67.14
2022-10-19T15:35:39.728Z,67.21
2022-10-19T15:38:46.142Z,67.23
2022-10-19T15:41:51.749Z,67.20
2022-10-19T15:44:58.013Z,67.19
2022-10-19T15:48:28.380Z,67.31
2022-10-19T15:51:47.820Z,67.25
2022-10-19T15:54:54.497Z,67.38
2022-10-19T15:58:02.344Z,67.44
2022-10-19T16:01:16.878Z,67.37
2022-10-19T16:04:22.372Z,67.38
2022-10-19T16:07:31.482Z,67.44
2022-10-19T16:10:37.091Z,67.53
2022-10-19T16:13:43.049Z,67.65
2022-10-19T16:16:50.339Z,67.62
2022-10-19T16:19:55.787Z,67.65
2022-10-19T16:23:01.438Z,67.68
2022-10-19T16:26:07.412Z,67.84
2022-10-19T16:29:12.859Z,67.77
2022-10-19T16:32:18.394Z,67.78
2022-10-19T16:35:24.079Z,67.85
2022-10-19T16:38:31.542Z,67.79
2022-10-19T16:44:47.555Z,68.07
2022-10-19T16:47:53.869Z,68.06
2022-10-19T16:51:35.449Z,68.08
2022-10-19T16:54:40.966Z,68.21
2022-10-19T16:57:46.517Z,68.17
2022-10-19T17:00:52.298Z,68.24
2022-10-19T17:03:58.576Z,68.09
2022-10-19T17:07:04.085Z,68.37
2022-10-19T17:10:10.948Z,68.31
2022-10-19T17:13:16.442Z,68.39
2022-10-19T17:16:23.440Z,68.49
2022-10-19T17:19:29.053Z,68.65
2022-10-19T17:22:35.010Z,68.56
2022-10-19T17:25:47.213Z,68.88
2022-10-19T17:28:52.610Z,68.87
2022-10-19T17:31:58.568Z,69.09
2022-10-19T17:35:04.058Z,69.12
2022-10-19T17:38:09.478Z,69.04
2022-10-19T17:41:17.263Z,69.36
2022-10-19T17:44:23.979Z,69.44
2022-10-19T17:47:30.666Z,69.73
2022-10-19T17:50:36.318Z,69.64
2022-10-19T17:53:41.794Z,69.81
2022-10-19T17:56:47.317Z,69.96
2022-10-19T17:59:54.299Z,70.10
2022-10-19T18:02:59.817Z,70.36
2022-10-19T18:06:09.886Z,70.45
2022-10-19T18:09:16.476Z,70.35
2022-10-19T18:12:22.025Z,70.55
2022-10-19T18:15:27.576Z,70.60
2022-10-19T18:18:35.505Z,70.82
2022-10-19T18:21:43.041Z,70.97
2022-10-19T18:24:49.596Z,70.95
2022-10-19T18:27:55.097Z,71.17
2022-10-19T18:31:07.427Z,71.21
2022-10-19T18:34:16.365Z,71.17
2022-10-19T18:37:21.812Z,71.37
2022-10-19T18:40:27.843Z,71.45
2022-10-19T18:43:33.700Z,71.61
2022-10-19T18:46:40.124Z,71.71
2022-10-19T18:49:45.618Z,71.78
2022-10-19T18:52:51.066Z,71.82
2022-10-19T18:56:04.109Z,72.05
2022-10-19T18:59:09.882Z,72.11
2022-10-19T19:02:28.219Z,72.12
2022-10-19T19:05:40.090Z,72.37
2022-10-19T19:08:45.949Z,72.45
2022-10-19T19:11:54.200Z,72.36
2022-10-19T19:14:59.626Z,72.59
2022-10-19T19:18:05.609Z,72.73
2022-10-19T19:21:16.803Z,72.75
2022-10-19T19:24:28.067Z,72.76
2022-10-19T19:27:33.724Z,72.81
2022-10-19T19:30:44.557Z,72.96
2022-10-19T19:33:50.310Z,72.95
2022-10-19T19:36:55.859Z,73.01
2022-10-19T19:40:01.424Z,73.07
2022-10-19T19:43:06.862Z,73.09
2022-10-19T19:46:15.482Z,73.12
2022-10-19T19:49:21.128Z,73.22
2022-10-19T19:52:26.582Z,73.12
2022-10-19T19:55:38.157Z,73.18
2022-10-19T19:58:46.276Z,73.21
2022-10-19T20:01:51.989Z,73.36
2022-10-19T20:04:57.536Z,73.35
2022-10-19T20:08:03.027Z,73.52
2022-10-19T20:11:11.034Z,73.34
2022-10-19T20:14:16.583Z,73.51
2022-10-19T20:17:23.977Z,73.57
2022-10-19T20:20:29.465Z,73.57
2022-10-19T20:23:35.100Z,73.63
2022-10-19T20:26:41.034Z,73.72
2022-10-19T20:29:46.583Z,73.76
2022-10-19T20:32:55.980Z,73.88
2022-10-19T20:36:06.480Z,73.96
2022-10-19T20:39:12.461Z,74.05
2022-10-19T20:42:19.269Z,74.07
2022-10-19T20:45:24.778Z,74.00
2022-10-19T20:48:30.325Z,74.14
2022-10-19T20:51:37.956Z,74.22
2022-10-19T20:54:43.574Z,74.29
2022-10-19T20:57:49.107Z,74.38
2022-10-19T21:00:54.533Z,74.52
2022-10-19T21:04:03.313Z,74.54
2022-10-19T21:07:09.097Z,74.55
2022-10-19T21:10:14.560Z,74.67
2022-10-19T21:13:20.046Z,74.79
2022-10-19T21:16:28.393Z,74.61
2022-10-19T21:19:34.463Z,74.63
2022-10-19T21:22:41.620Z,74.76
2022-10-19T21:25:56.164Z,74.96
2022-10-19T21:29:01.720Z,75.12
2022-10-19T21:32:07.780Z,75.15
2022-10-19T21:35:13.434Z,75.16
2022-10-19T21:38:18.865Z,75.12
2022-10-19T21:41:26.391Z,75.12
2022-10-19T21:44:32.157Z,75.23
2022-10-19T21:47:38.033Z,75.45
2022-10-19T21:50:43.787Z,75.35
2022-10-19T21:53:49.231Z,75.55
2022-10-19T21:56:56.690Z,75.34
2022-10-19T22:00:02.255Z,75.40
2022-10-19T22:03:07.728Z,75.31
2022-10-19T22:06:14.473Z,75.33
2022-10-19T22:09:21.814Z,75.30
2022-10-19T22:12:27.317Z,75.38
2022-10-19T22:15:32.847Z,75.26
2022-10-19T22:18:38.497Z,75.10
2022-10-19T22:21:44.355Z,75.18
2022-10-19T22:24:49.903Z,75.47
2022-10-19T22:27:55.361Z,75.26
2022-10-19T22:31:01.718Z,75.16
2022-10-19T22:34:09.835Z,75.11
2022-10-19T22:37:15.260Z,74.89
2022-10-19T22:40:20.927Z,74.84
2022-10-19T22:44:20.135Z,74.87
2022-10-19T22:47:26.401Z,74.72
2022-10-19T22:50:30.709Z,74.74
2022-10-19T22:53:36.610Z,74.79
2022-10-19T22:56:42.669Z,74.67
2022-10-19T22:59:48.740Z,74.69
2022-10-19T23:02:54.778Z,74.68
2022-10-19T23:06:00.992Z,74.66
2022-10-19T23:09:05.636Z,74.66
2022-10-19T23:12:11.717Z,74.51
2022-10-19T23:15:17.844Z,74.59
2022-10-19T23:18:23.923Z,74.55
2022-10-19T23:21:29.965Z,74.52
2022-10-19T23:24:35.882Z,74.47
2022-10-19T23:27:41.922Z,74.51
2022-10-19T23:30:48.030Z,74.59
2022-10-19T23:33:54.661Z,74.72
2022-10-19T23:37:00.550Z,74.74
2022-10-19T23:40:07.681Z,74.78
2022-10-19T23:43:13.356Z,74.70
2022-10-19T23:46:19.341Z,74.74
2022-10-19T23:49:25.068Z,74.67
2022-10-19T23:52:30.720Z,74.72
2022-10-19T23:55:36.475Z,74.82
2022-10-19T23:58:42.433Z,74.66
